createdAt,value
2023-02-22T00:01:51.117Z,94508.47
2023-02-22T00:04:21.457Z,94517.88
2023-02-22T00:06:50.904Z,94521.44
2023-02-22T00:09:21.520Z,94519.66
2023-02-22T00:11:50.250Z,94513.47
2023-02-22T00:14:20.607Z,94519.13
2023-02-22T00:16:48.950Z,94521.22
2023-02-22T00:19:16.814Z,94521.59
2023-02-22T00:21:45.309Z,94521.09
2023-02-22T00:24:23.935Z,94524.50
2023-02-22T00:26:53.211Z,94525.91
2023-02-22T00:29:21.067Z,94522.00
2023-02-22T00:31:49.023Z,94519.72
2023-02-22T00:34:17.057Z,94513.53
2023-02-22T00:36:48.311Z,94513.41
2023-02-22T00:39:17.905Z,94506.50
2023-02-22T00:41:46.032Z,94493.91
2023-02-22T00:44:13.930Z,94506.94
2023-02-22T00:46:41.804Z,94503.41
2023-02-22T00:49:09.689Z,94499.22
2023-02-22T00:51:37.557Z,94501.66
2023-02-22T00:54:05.570Z,94496.78
2023-02-22T00:56:35.902Z,94493.53
2023-02-22T00:59:03.798Z,94488.69
2023-02-22T01:01:31.839Z,94483.69
2023-02-22T01:03:59.823Z,94481.59
2023-02-22T01:06:27.803Z,94484.81
2023-02-22T01:08:55.847Z,94478.19
2023-02-22T01:11:23.742Z,94477.06
2023-02-22T01:13:56.626Z,94472.66
2023-02-22T01:16:25.134Z,94478.16
2023-02-22T01:18:53.090Z,94479.75
2023-02-22T01:21:21.062Z,94476.69
2023-02-22T01:23:49.229Z,94474.78
2023-02-22T01:26:17.110Z,94469.41
2023-02-22T01:28:44.996Z,94471.50
2023-02-22T01:31:14.372Z,94468.25
2023-02-22T01:33:42.453Z,94466.66
2023-02-22T01:36:11.514Z,94462.28
2023-02-22T01:38:39.745Z,94469.03
2023-02-22T01:41:07.775Z,94470.66
2023-02-22T01:43:35.694Z,94472.59
2023-02-22T01:46:05.117Z,94472.59
2023-02-22T01:48:45.379Z,94473.09
2023-02-22T01:51:18.155Z,94477.59
2023-02-22T01:53:49.788Z,94476.13
2023-02-22T01:56:20.157Z,94479.34
2023-02-22T01:58:51.905Z,94478.63
2023-02-22T02:01:23.509Z,94468.88
2023-02-22T02:03:58.145Z,94469.66
2023-02-22T02:06:27.638Z,94474.09
2023-02-22T02:09:01.743Z,94480.75
2023-02-22T02:11:30.010Z,94475.69
2023-02-22T02:13:59.398Z,94480.94
2023-02-22T02:16:40.184Z,94484.56
2023-02-22T02:19:17.063Z,94475.41
2023-02-22T02:22:18.331Z,94485.63
2023-02-22T02:25:26.659Z,94480.34
2023-02-22T02:28:15.225Z,94490.22
2023-02-22T02:31:14.620Z,94492.16
2023-02-22T02:33:46.143Z,94491.50
2023-02-22T02:36:20.927Z,94496.66
2023-02-22T02:38:56.804Z,94497.25
2023-02-22T02:41:28.918Z,94501.22
2023-02-22T02:44:01.477Z,94474.38
2023-02-22T02:46:35.494Z,94486.03
2023-02-22T02:49:09.742Z,94501.06
2023-02-22T02:51:42.820Z,94501.13
2023-02-22T02:54:13.480Z,94501.38
2023-02-22T02:56:42.812Z,94507.56
2023-02-22T02:59:25.769Z,94497.50
2023-02-22T03:02:08.773Z,94494.31
2023-02-22T03:04:54.503Z,94498.59
2023-02-22T03:07:32.868Z,94506.56
2023-02-22T03:10:14.708Z,94503.06
2023-02-22T03:12:50.180Z,94500.16
2023-02-22T03:15:34.139Z,94503.59
2023-02-22T03:18:07.997Z,94498.41
2023-02-22T03:20:46.439Z,94505.22
2023-02-22T03:23:25.318Z,94496.78
2023-02-22T03:25:57.690Z,94495.16
2023-02-22T03:28:28.854Z,94497.03
2023-02-22T03:31:02.101Z,94496.78
2023-02-22T03:33:36.449Z,94492.56
2023-02-22T03:36:13.517Z,94498.00
2023-02-22T03:38:44.345Z,94497.97
2023-02-22T03:41:17.361Z,94497.69
2023-02-22T03:43:50.453Z,94489.19
2023-02-22T03:46:20.461Z,94495.03
2023-02-22T03:48:54.160Z,94495.03
2023-02-22T03:51:24.708Z,94498.06
2023-02-22T03:53:53.730Z,94500.75
2023-02-22T03:56:26.923Z,94501.38
2023-02-22T03:58:55.477Z,94497.06
2023-02-22T04:01:23.736Z,94493.25
2023-02-22T04:03:51.642Z,94497.44
2023-02-22T04:06:19.504Z,94491.41
2023-02-22T04:08:48.781Z,94495.16
2023-02-22T04:11:16.960Z,94498.41
2023-02-22T04:13:45.034Z,94500.63
2023-02-22T04:16:13.044Z,94504.56
2023-02-22T04:18:41.059Z,94502.38
2023-02-22T04:21:09.358Z,94492.81
2023-02-22T04:23:37.256Z,94491.69
2023-02-22T04:26:06.733Z,94496.59
2023-02-22T04:28:34.612Z,94507.50
2023-02-22T04:31:02.520Z,94508.09
2023-02-22T04:33:30.491Z,94514.22
2023-02-22T04:35:59.484Z,94512.31
2023-02-22T04:38:27.999Z,94518.03
2023-02-22T04:40:56.315Z,94518.22
2023-02-22T04:43:25.862Z,94507.19
2023-02-22T04:45:53.957Z,94473.78
2023-02-22T04:48:22.039Z,94499.63
2023-02-22T04:50:51.360Z,94495.75
2023-02-22T04:53:19.251Z,94507.16
2023-02-22T04:55:47.235Z,94502.66
2023-02-22T04:58:15.143Z,94507.94
2023-02-22T05:00:44.350Z,94519.34
2023-02-22T05:03:12.217Z,94516.00
2023-02-22T05:05:40.274Z,94517.34
2023-02-22T05:08:08.118Z,94507.44
2023-02-22T05:10:35.998Z,94519.50
2023-02-22T05:13:04.338Z,94518.31
2023-02-22T05:15:32.604Z,94517.69
2023-02-22T05:18:01.898Z,94517.16
2023-02-22T05:20:32.044Z,94522.16
2023-02-22T05:23:01.541Z,94527.59
2023-02-22T05:25:29.739Z,94522.16
2023-02-22T05:27:59.990Z,94533.53
2023-02-22T05:30:30.592Z,94524.88
2023-02-22T05:32:59.268Z,94528.00
2023-02-22T05:35:29.399Z,94546.28
2023-02-22T05:37:58.563Z,94545.72
2023-02-22T05:40:28.163Z,94549.41
2023-02-22T05:42:56.782Z,94553.06
2023-02-22T05:45:27.002Z,94563.50
2023-02-22T05:47:55.887Z,94570.66
2023-02-22T05:50:24.560Z,94558.47
2023-02-22T05:52:54.331Z,94561.28
2023-02-22T05:55:24.184Z,94561.41
2023-02-22T05:57:52.689Z,94559.47
2023-02-22T06:00:23.599Z,94554.63
2023-02-22T06:02:56.095Z,94568.91
2023-02-22T06:05:24.048Z,94569.97
2023-02-22T06:07:53.935Z,94572.09
2023-02-22T06:10:22.231Z,94568.66
2023-02-22T06:12:50.973Z,94574.81
2023-02-22T06:15:20.630Z,94569.63
2023-02-22T06:17:48.795Z,94567.31
2023-02-22T06:20:19.328Z,94567.59
2023-02-22T06:22:48.521Z,94569.72
2023-02-22T06:25:20.109Z,94570.91
2023-02-22T06:27:48.032Z,94567.75
2023-02-22T06:30:17.797Z,94565.38
2023-02-22T06:32:45.764Z,94570.78
2023-02-22T06:35:13.953Z,94569.75
2023-02-22T06:37:41.897Z,94553.22
2023-02-22T06:40:11.289Z,94577.88
2023-02-22T06:42:40.917Z,94570.84
2023-02-22T06:45:10.240Z,94573.72
2023-02-22T06:47:41.420Z,94574.69
2023-02-22T06:50:18.494Z,94579.91
2023-02-22T06:52:47.921Z,94570.69
2023-02-22T06:55:19.030Z,94560.88
2023-02-22T06:57:48.406Z,94573.25
2023-02-22T07:00:17.809Z,94563.88
2023-02-22T07:02:45.898Z,94573.38
2023-02-22T07:05:14.023Z,94565.34
2023-02-22T07:07:42.016Z,94569.78
2023-02-22T07:10:17.194Z,94562.38
2023-02-22T07:12:45.134Z,94568.78
2023-02-22T07:15:14.791Z,94568.50
2023-02-22T07:17:42.852Z,94575.16
2023-02-22T07:20:11.655Z,94571.44
2023-02-22T07:22:40.225Z,94569.88
2023-02-22T07:25:11.290Z,94575.41
2023-02-22T07:27:40.052Z,94575.75
2023-02-22T07:30:10.174Z,94576.09
2023-02-22T07:32:39.590Z,94575.81
2023-02-22T07:35:08.419Z,94576.31
2023-02-22T07:37:36.242Z,94571.91
2023-02-22T07:40:04.301Z,94565.47
2023-02-22T07:42:33.163Z,94557.19
2023-02-22T07:45:00.999Z,94551.41
2023-02-22T07:47:28.872Z,94560.97
2023-02-22T07:49:58.674Z,94558.75
2023-02-22T07:52:26.564Z,94568.19
2023-02-22T07:54:54.669Z,94563.06
2023-02-22T07:57:24.038Z,94562.91
2023-02-22T07:59:51.883Z,94561.94
2023-02-22T08:02:19.884Z,94564.50
2023-02-22T08:04:47.784Z,94556.09
2023-02-22T08:07:17.110Z,94553.59
2023-02-22T08:09:45.027Z,94553.44
2023-02-22T08:12:13.044Z,94550.84
2023-02-22T08:14:40.946Z,94549.97
2023-02-22T08:17:09.599Z,94550.91
2023-02-22T08:19:39.251Z,94551.03
2023-02-22T08:22:07.095Z,94543.00
2023-02-22T08:24:36.357Z,94548.13
2023-02-22T08:27:04.220Z,94551.16
2023-02-22T08:29:33.637Z,94544.94
2023-02-22T08:32:01.907Z,94545.19
2023-02-22T08:34:29.853Z,94544.19
2023-02-22T08:36:57.920Z,94525.06
2023-02-22T08:39:25.827Z,94547.97
2023-02-22T08:41:55.073Z,94540.69
2023-02-22T08:44:24.224Z,94531.31
2023-02-22T08:46:52.710Z,94528.75
2023-02-22T08:49:20.660Z,94534.09
2023-02-22T08:51:49.030Z,94532.16
2023-02-22T08:54:18.265Z,94532.34
2023-02-22T08:56:46.228Z,94533.16
2023-02-22T08:59:15.906Z,94525.97
2023-02-22T09:01:44.201Z,94527.53
2023-02-22T09:04:12.102Z,94526.75
2023-02-22T09:06:42.373Z,94527.47
2023-02-22T09:09:10.866Z,94533.91
2023-02-22T09:11:38.716Z,94527.97
2023-02-22T09:14:06.595Z,94521.66
2023-02-22T09:16:38.023Z,94501.72
2023-02-22T09:19:05.941Z,94513.22
2023-02-22T09:21:44.855Z,94501.19
2023-02-22T09:24:12.886Z,94517.44
2023-02-22T09:26:40.796Z,94511.38
2023-02-22T09:29:09.843Z,94501.56
2023-02-22T09:31:40.512Z,94521.59
2023-02-22T09:34:13.972Z,94504.94
2023-02-22T09:36:42.101Z,94506.91
2023-02-22T09:39:11.329Z,94501.78
2023-02-22T09:41:48.029Z,94503.72
2023-02-22T09:44:24.048Z,94512.81
2023-02-22T09:46:56.280Z,94500.59
2023-02-22T09:49:29.452Z,94497.09
2023-02-22T09:52:02.637Z,94497.38
2023-02-22T09:54:35.825Z,94493.22
2023-02-22T09:57:08.723Z,94492.25
2023-02-22T09:59:43.476Z,94490.19
2023-02-22T10:02:25.916Z,94474.97
2023-02-22T10:04:58.654Z,94481.94
2023-02-22T10:07:33.269Z,94476.88
2023-02-22T10:10:06.844Z,94471.69
2023-02-22T10:12:49.649Z,94466.25
2023-02-22T10:15:47.559Z,94460.19
2023-02-22T10:18:46.849Z,94459.34
2023-02-22T10:21:28.107Z,94458.88
2023-02-22T10:24:06.138Z,94452.34
2023-02-22T10:26:37.680Z,94455.13
2023-02-22T10:29:11.864Z,94443.88
2023-02-22T10:31:59.479Z,94432.72
2023-02-22T10:34:34.959Z,94425.16
2023-02-22T10:37:15.690Z,94403.13
2023-02-22T10:39:45.641Z,94419.34
2023-02-22T10:42:13.640Z,94415.00
2023-02-22T10:44:42.171Z,94407.28
2023-02-22T10:47:12.747Z,94404.03
2023-02-22T10:49:45.448Z,94402.56
2023-02-22T10:52:18.517Z,94397.38
2023-02-22T10:54:49.586Z,94386.56
2023-02-22T10:57:22.373Z,94392.50
2023-02-22T10:59:52.052Z,94383.72
2023-02-22T11:02:25.090Z,94385.34
2023-02-22T11:04:56.417Z,94389.19
2023-02-22T11:07:27.311Z,94373.13
2023-02-22T11:09:56.997Z,94374.75
2023-02-22T11:12:32.031Z,94376.84
2023-02-22T11:15:18.940Z,94361.59
2023-02-22T11:17:48.545Z,94368.56
2023-02-22T11:20:25.364Z,94362.94
2023-02-22T11:22:55.570Z,94364.28
2023-02-22T11:25:29.710Z,94351.34
2023-02-22T11:28:09.426Z,94357.38
2023-02-22T11:30:38.449Z,94337.19
2023-02-22T11:33:23.436Z,94351.25
2023-02-22T11:35:54.699Z,94338.00
2023-02-22T11:38:24.815Z,94343.28
2023-02-22T11:41:09.198Z,94344.63
2023-02-22T11:43:37.721Z,94337.25
2023-02-22T11:46:08.523Z,94341.53
2023-02-22T11:48:39.483Z,94331.13
2023-02-22T11:51:27.725Z,94329.81
2023-02-22T11:54:25.471Z,94332.50
2023-02-22T11:56:56.809Z,94321.22
2023-02-22T11:59:38.473Z,94324.25
2023-02-22T12:02:30.483Z,94327.69
2023-02-22T12:05:13.788Z,94322.91
2023-02-22T12:07:57.018Z,94318.16
2023-02-22T12:10:35.233Z,94314.13
2023-02-22T12:13:19.611Z,94303.22
2023-02-22T12:15:57.386Z,94299.94
2023-02-22T12:18:35.900Z,94309.00
2023-02-22T12:21:08.270Z,94305.09
2023-02-22T12:23:45.973Z,94296.13
2023-02-22T12:26:20.077Z,94291.41
2023-02-22T12:28:53.417Z,94303.75
2023-02-22T12:31:25.338Z,94308.38
2023-02-22T12:34:03.496Z,94293.16
2023-02-22T12:36:37.145Z,94279.28
2023-02-22T12:39:23.561Z,94286.28
2023-02-22T12:41:55.728Z,94276.00
2023-02-22T12:44:27.603Z,94279.69
2023-02-22T12:47:00.144Z,94280.22
2023-02-22T12:49:35.888Z,94265.19
2023-02-22T12:52:21.373Z,94284.38
2023-02-22T12:54:59.388Z,94280.63
2023-02-22T12:57:39.186Z,94265.47
2023-02-22T13:00:17.202Z,94281.06
2023-02-22T13:02:50.453Z,94270.19
2023-02-22T13:05:20.922Z,94276.34
2023-02-22T13:07:59.823Z,94268.84
2023-02-22T13:10:47.563Z,94260.97
2023-02-22T13:13:21.600Z,94265.56
2023-02-22T13:15:56.312Z,94253.13
2023-02-22T13:18:29.759Z,94257.06
2023-02-22T13:21:04.030Z,94272.78
2023-02-22T13:23:44.634Z,94268.22
2023-02-22T13:26:20.251Z,94255.66
2023-02-22T13:28:52.235Z,94259.91
2023-02-22T13:31:35.992Z,94267.22
2023-02-22T13:34:21.187Z,94261.34
2023-02-22T13:37:01.831Z,94248.94
2023-02-22T13:40:02.546Z,94266.88
2023-02-22T13:42:55.248Z,94261.44
2023-02-22T13:45:49.874Z,94256.22
2023-02-22T13:48:35.644Z,94247.19
2023-02-22T13:51:12.170Z,94255.84
2023-02-22T13:53:49.842Z,94247.47
2023-02-22T13:56:19.922Z,94247.75
2023-02-22T13:58:52.181Z,94247.34
2023-02-22T14:01:40.677Z,94240.81
2023-02-22T14:04:33.627Z,94253.69
2023-02-22T14:07:02.734Z,94246.34
2023-02-22T14:09:48.226Z,94254.69
2023-02-22T14:12:59.067Z,94252.03
2023-02-22T14:15:30.328Z,94250.75
2023-02-22T14:18:00.937Z,94255.47
2023-02-22T14:20:32.515Z,94253.81
2023-02-22T14:23:32.953Z,94254.75
2023-02-22T14:26:13.383Z,94253.63
2023-02-22T14:28:50.534Z,94248.13
2023-02-22T14:31:35.002Z,94246.75
2023-02-22T14:34:11.257Z,94239.91
2023-02-22T14:36:53.380Z,94256.97
2023-02-22T14:39:31.801Z,94241.88
2023-02-22T14:42:03.728Z,94243.16
2023-02-22T14:44:37.120Z,94246.91
2023-02-22T14:47:08.822Z,94241.84
2023-02-22T14:49:42.537Z,94243.47
2023-02-22T14:52:22.499Z,94249.59
2023-02-22T14:54:59.866Z,94236.13
2023-02-22T14:57:38.645Z,94240.69
2023-02-22T15:00:20.742Z,94238.50
2023-02-22T15:02:52.428Z,94240.63
2023-02-22T15:05:21.191Z,94237.66
2023-02-22T15:07:54.477Z,94248.25
2023-02-22T15:10:26.701Z,94254.56
2023-02-22T15:13:08.936Z,94251.13
2023-02-22T15:15:39.636Z,94240.47
2023-02-22T15:18:20.353Z,94247.44
2023-02-22T15:20:55.949Z,94242.13
2023-02-22T15:23:27.783Z,94239.25
2023-02-22T15:25:55.734Z,94242.59
2023-02-22T15:28:25.494Z,94243.09
2023-02-22T15:30:53.412Z,94245.88
2023-02-22T15:33:24.685Z,94251.00
2023-02-22T15:35:57.883Z,94238.19
2023-02-22T15:38:33.288Z,94244.41
2023-02-22T15:41:03.322Z,94252.13
2023-02-22T15:43:32.724Z,94245.50
2023-02-22T15:46:01.969Z,94248.00
2023-02-22T15:48:31.918Z,94247.41
2023-02-22T15:51:07.857Z,94252.28
2023-02-22T15:53:41.161Z,94252.84
2023-02-22T15:56:13.737Z,94255.63
2023-02-22T15:58:43.269Z,94238.81
2023-02-22T16:01:14.249Z,94251.16
2023-02-22T16:03:47.701Z,94257.72
2023-02-22T16:06:27.734Z,94262.38
2023-02-22T16:08:57.715Z,94265.75
2023-02-22T16:11:31.053Z,94265.72
2023-02-22T16:14:05.128Z,94269.00
2023-02-22T16:16:34.891Z,94271.97
2023-02-22T16:19:37.900Z,94282.13
2023-02-22T16:22:13.760Z,94276.56
2023-02-22T16:24:42.504Z,94278.22
2023-02-22T16:27:22.188Z,94281.84
2023-02-22T16:30:15.541Z,94281.06
2023-02-22T16:32:50.746Z,94277.31
2023-02-22T16:35:20.249Z,94284.44
2023-02-22T16:37:50.169Z,94282.47
2023-02-22T16:40:24.908Z,94288.91
2023-02-22T16:42:52.891Z,94292.97
2023-02-22T16:45:22.770Z,94289.56
2023-02-22T16:47:53.770Z,94291.81
2023-02-22T16:50:23.890Z,94301.84
2023-02-22T16:52:55.251Z,94298.84
2023-02-22T16:55:24.743Z,94301.66
2023-02-22T16:57:57.081Z,94298.25
2023-02-22T17:00:32.035Z,94309.72
2023-02-22T17:03:03.856Z,94307.94
2023-02-22T17:05:36.413Z,94303.94
2023-02-22T17:08:05.061Z,94305.16
2023-02-22T17:10:34.197Z,94306.34
2023-02-22T17:13:16.168Z,94311.59
2023-02-22T17:15:49.766Z,94306.56
2023-02-22T17:18:22.654Z,94323.06
2023-02-22T17:20:52.602Z,94311.75
2023-02-22T17:23:21.152Z,94327.63
2023-02-22T17:25:54.493Z,94325.00
2023-02-22T17:28:23.667Z,94324.81
2023-02-22T17:30:52.177Z,94323.59
2023-02-22T17:33:22.757Z,94318.56
2023-02-22T17:35:52.196Z,94334.41
2023-02-22T17:38:20.698Z,94323.13
2023-02-22T17:40:49.268Z,94329.56
2023-02-22T17:43:19.463Z,94330.59
2023-02-22T17:45:47.979Z,94329.94
2023-02-22T17:48:17.482Z,94332.34
2023-02-22T17:50:46.878Z,94320.06
2023-02-22T17:53:18.231Z,94313.41
2023-02-22T17:55:46.154Z,94319.78
2023-02-22T17:58:15.065Z,94338.31
2023-02-22T18:00:45.065Z,94335.63
2023-02-22T18:03:16.194Z,94316.16
2023-02-22T18:05:46.259Z,94307.06
2023-02-22T18:08:14.562Z,94326.38
2023-02-22T18:10:44.519Z,94334.44
2023-02-22T18:13:16.706Z,94336.84
2023-02-22T18:15:45.430Z,94335.00
2023-02-22T18:18:13.593Z,94337.47
2023-02-22T18:20:43.903Z,94333.78
2023-02-22T18:23:14.517Z,94341.03
2023-02-22T18:26:03.707Z,94326.13
2023-02-22T18:28:37.752Z,94330.38
2023-02-22T18:31:08.531Z,94327.19
2023-02-22T18:33:36.717Z,94337.06
2023-02-22T18:36:05.205Z,94319.53
2023-02-22T18:38:33.117Z,94344.13
2023-02-22T18:41:03.698Z,94338.31
2023-02-22T18:43:34.287Z,94335.75
2023-02-22T18:46:10.078Z,94309.72
2023-02-22T18:48:39.102Z,94320.91
2023-02-22T18:51:09.838Z,94341.81
2023-02-22T18:53:38.672Z,94336.81
2023-02-22T18:56:10.179Z,94340.19
2023-02-22T18:58:38.980Z,94339.78
2023-02-22T19:01:08.248Z,94336.94
2023-02-22T19:03:38.460Z,94325.72
2023-02-22T19:06:09.196Z,94329.34
2023-02-22T19:08:39.632Z,94343.03
2023-02-22T19:11:11.519Z,94347.81
2023-02-22T19:13:39.818Z,94349.41
2023-02-22T19:16:08.290Z,94350.50
2023-02-22T19:18:36.301Z,94353.75
2023-02-22T19:21:08.593Z,94354.50
2023-02-22T19:23:38.808Z,94358.88
2023-02-22T19:26:09.421Z,94359.25
2023-02-22T19:28:37.368Z,94354.81
2023-02-22T19:31:13.260Z,94348.69
2023-02-22T19:33:41.825Z,94359.63
2023-02-22T19:36:11.050Z,94366.22
2023-02-22T19:38:39.437Z,94369.34
2023-02-22T19:41:10.490Z,94376.94
2023-02-22T19:43:38.528Z,94368.97
2023-02-22T19:46:07.627Z,94379.81
2023-02-22T19:48:36.295Z,94353.66
2023-02-22T19:51:06.522Z,94354.75
2023-02-22T19:53:35.055Z,94363.19
2023-02-22T19:56:09.480Z,94372.34
2023-02-22T19:58:39.685Z,94359.56
2023-02-22T20:01:15.184Z,94378.16
2023-02-22T20:03:43.636Z,94370.03
2023-02-22T20:06:16.739Z,94358.69
2023-02-22T20:08:44.925Z,94381.38
2023-02-22T20:11:14.075Z,94382.72
2023-02-22T20:13:43.703Z,94377.28
2023-02-22T20:16:15.747Z,94372.00
2023-02-22T20:18:44.411Z,94385.06
2023-02-22T20:21:15.559Z,94376.75
2023-02-22T20:23:44.452Z,94375.88
2023-02-22T20:26:16.641Z,94383.50
2023-02-22T20:28:46.694Z,94389.78
2023-02-22T20:31:16.681Z,94387.69
2023-02-22T20:33:46.677Z,94386.09
2023-02-22T20:36:16.994Z,94388.81
2023-02-22T20:38:45.225Z,94383.22
2023-02-22T20:41:15.653Z,94371.84
2023-02-22T20:43:45.177Z,94386.81
2023-02-22T20:46:13.679Z,94380.81
2023-02-22T20:48:42.036Z,94387.88
2023-02-22T20:51:11.268Z,94390.50
2023-02-22T20:53:41.817Z,94392.97
2023-02-22T20:56:13.387Z,94392.63
2023-02-22T20:58:41.363Z,94384.38
2023-02-22T21:01:13.928Z,94379.34
2023-02-22T21:03:43.257Z,94385.81
2023-02-22T21:06:15.050Z,94383.22
2023-02-22T21:08:44.321Z,94386.31
2023-02-22T21:11:16.199Z,94382.16
2023-02-22T21:13:45.186Z,94382.63
2023-02-22T21:16:19.175Z,94372.41
2023-02-22T21:18:47.095Z,94384.59
2023-02-22T21:21:16.683Z,94389.44
2023-02-22T21:23:50.222Z,94383.59
2023-02-22T21:26:20.100Z,94372.66
2023-02-22T21:28:51.427Z,94377.22
2023-02-22T21:31:23.051Z,94388.34
2023-02-22T21:33:52.686Z,94387.03
2023-02-22T21:36:25.169Z,94385.06
2023-02-22T21:38:55.633Z,94380.53
2023-02-22T21:41:27.819Z,94375.91
2023-02-22T21:43:56.897Z,94381.00
2023-02-22T21:46:27.161Z,94381.69
2023-02-22T21:48:55.894Z,94384.19
2023-02-22T21:51:26.382Z,94385.72
2023-02-22T21:53:55.697Z,94373.72
2023-02-22T21:56:27.529Z,94369.00
2023-02-22T21:58:59.184Z,94367.16
2023-02-22T22:01:30.052Z,94367.09
2023-02-22T22:04:00.417Z,94379.75
2023-02-22T22:06:29.653Z,94385.44
2023-02-22T22:08:59.840Z,94384.47
2023-02-22T22:11:30.693Z,94392.44
2023-02-22T22:14:00.442Z,94387.94
2023-02-22T22:16:30.446Z,94388.97
2023-02-22T22:18:58.819Z,94394.06
2023-02-22T22:21:27.039Z,94391.38
2023-02-22T22:23:56.171Z,94393.09
2023-02-22T22:26:26.320Z,94390.88
2023-02-22T22:28:55.953Z,94398.38
2023-02-22T22:31:25.895Z,94389.69
2023-02-22T22:33:56.326Z,94399.25
2023-02-22T22:36:26.162Z,94398.16
2023-02-22T22:38:57.510Z,94394.94
2023-02-22T22:41:28.922Z,94393.00
2023-02-22T22:43:57.357Z,94378.00
2023-02-22T22:46:25.426Z,94385.09
2023-02-22T22:48:53.385Z,94387.03
2023-02-22T22:51:23.076Z,94394.31
2023-02-22T22:53:51.918Z,94392.69
2023-02-22T22:56:26.035Z,94396.59
2023-02-22T22:58:56.920Z,94388.34
2023-02-22T23:01:27.357Z,94393.22
2023-02-22T23:03:59.860Z,94396.09
2023-02-22T23:06:33.117Z,94376.22
2023-02-22T23:09:10.199Z,94388.97
2023-02-22T23:11:44.420Z,94389.31
2023-02-22T23:14:13.500Z,94386.56
2023-02-22T23:16:42.791Z,94385.59
2023-02-22T23:19:11.159Z,94388.19
2023-02-22T23:21:43.164Z,94396.41
2023-02-22T23:24:15.201Z,94392.41
2023-02-22T23:26:48.346Z,94391.75
2023-02-22T23:29:17.166Z,94389.66
2023-02-22T23:31:48.218Z,94397.56
2023-02-22T23:34:17.141Z,94389.81
2023-02-22T23:36:46.735Z,94391.59
2023-02-22T23:39:16.885Z,94394.66
2023-02-22T23:41:44.873Z,94391.13
2023-02-22T23:44:17.426Z,94386.41
2023-02-22T23:46:48.245Z,94380.56
2023-02-22T23:49:20.664Z,94396.28
2023-02-22T23:51:50.491Z,94387.38
2023-02-22T23:54:21.150Z,94384.13
2023-02-22T23:56:56.915Z,94388.16
2023-02-22T23:59:25.954Z,94376.53
